createdAt,value
2017-09-14T00:00:53.633Z,13.4
2017-09-14T00:01:52.545Z,13.3
2017-09-14T00:02:51.981Z,13.3
2017-09-14T00:03:51.402Z,13.3
2017-09-14T00:04:50.320Z,13.3
2017-09-14T00:05:50.002Z,13.3
2017-09-14T00:06:48.917Z,13.3
2017-09-14T00:07:19.522Z,13.3
2017-09-14T00:07:49.544Z,13.3
2017-09-14T00:08:20.278Z,13.3
2017-09-14T00:09:46.497Z,13.3
2017-09-14T00:10:45.803Z,13.3
2017-09-14T00:11:45.347Z,13.3
2017-09-14T00:12:44.404Z,13.3
2017-09-14T00:13:43.580Z,13.2
2017-09-14T00:14:42.878Z,13.2
2017-09-14T00:15:42.295Z,13.2
2017-09-14T00:16:41.215Z,13.2
2017-09-14T00:17:40.382Z,13.2
2017-09-14T00:18:39.932Z,13.2
2017-09-14T00:20:38.115Z,13.2
2017-09-14T00:21:37.538Z,13.2
2017-09-14T00:22:36.826Z,13.2
2017-09-14T00:23:35.992Z,13.2
2017-09-14T00:24:35.157Z,13.2
2017-09-14T00:25:34.572Z,13.2
2017-09-14T00:26:33.618Z,13.2
2017-09-14T00:27:33.163Z,13.2
2017-09-14T00:28:32.072Z,13.2
2017-09-14T00:29:31.113Z,13.2
2017-09-14T00:30:31.036Z,13.2
2017-09-14T00:31:30.201Z,13.1
2017-09-14T00:32:28.995Z,13.1
2017-09-14T00:33:28.288Z,13.1
2017-09-14T00:34:27.464Z,13.1
2017-09-14T00:35:26.631Z,13
2017-09-14T00:36:26.049Z,13
2017-09-14T00:37:25.217Z,13
2017-09-14T00:38:24.767Z,13
2017-09-14T00:39:23.929Z,12.9
2017-09-14T00:39:54.284Z,12.9
2017-09-14T00:41:22.640Z,12.8
2017-09-14T00:42:21.554Z,12.8
2017-09-14T00:43:21.098Z,12.8
2017-09-14T00:44:19.890Z,12.7
2017-09-14T00:45:19.185Z,12.7
2017-09-14T00:46:18.510Z,12.7
2017-09-14T00:47:17.815Z,12.6
2017-09-14T00:48:16.860Z,12.6
2017-09-14T00:49:16.149Z,12.6
2017-09-14T00:50:15.068Z,12.6
2017-09-14T00:51:14.614Z,12.6
2017-09-14T00:52:14.041Z,12.6
2017-09-14T00:53:13.211Z,12.5
2017-09-14T00:54:12.381Z,12.5
2017-09-14T00:55:11.795Z,12.5
2017-09-14T00:57:10.100Z,12.5
2017-09-14T00:58:09.272Z,12.5
2017-09-14T00:59:08.319Z,12.5
2017-09-14T01:00:07.867Z,12.5
2017-09-14T01:01:06.661Z,12.4
2017-09-14T01:02:06.201Z,12.4
2017-09-14T01:03:05.491Z,12.4
2017-09-14T01:04:04.784Z,12.4
2017-09-14T01:05:04.080Z,12.4
2017-09-14T01:06:03.247Z,12.4
2017-09-14T01:07:02.410Z,12.4
2017-09-14T01:08:01.833Z,12.4
2017-09-14T01:09:00.622Z,12.4
2017-09-14T01:10:00.037Z,12.4
2017-09-14T01:10:58.949Z,12.4
2017-09-14T01:11:58.364Z,12.4
2017-09-14T01:12:57.781Z,12.4
2017-09-14T01:13:57.072Z,12.4
2017-09-14T01:14:56.238Z,12.4
2017-09-14T01:15:55.155Z,12.4
2017-09-14T01:17:53.965Z,12.4
2017-09-14T01:18:52.628Z,12.4
2017-09-14T01:19:52.059Z,12.4
2017-09-14T01:20:51.356Z,12.4
2017-09-14T01:21:50.525Z,12.3
2017-09-14T01:22:49.713Z,12.3
2017-09-14T01:23:48.874Z,12.3
2017-09-14T01:24:48.164Z,12.3
2017-09-14T01:25:47.592Z,12.3
2017-09-14T01:26:46.764Z,12.3
2017-09-14T01:28:45.322Z,12.3
2017-09-14T01:29:44.486Z,12.3
2017-09-14T01:30:43.530Z,12.3
2017-09-14T01:31:42.697Z,12.3
2017-09-14T01:32:42.237Z,12.3
2017-09-14T01:33:41.279Z,12.2
2017-09-14T01:34:40.450Z,12.3
2017-09-14T01:35:39.865Z,12.3
2017-09-14T01:37:38.294Z,12.3
2017-09-14T01:38:37.218Z,12.2
2017-09-14T01:39:36.643Z,12.3
2017-09-14T01:40:35.940Z,12.2
2017-09-14T01:41:34.855Z,12.2
2017-09-14T01:42:34.277Z,12.3
2017-09-14T01:44:32.837Z,12.3
2017-09-14T01:45:31.752Z,12.3
2017-09-14T01:46:31.311Z,12.3
2017-09-14T01:47:30.100Z,12.3
2017-09-14T01:48:29.146Z,12.3
2017-09-14T01:50:28.077Z,12.3
2017-09-14T01:51:27.247Z,12.3
2017-09-14T01:52:26.417Z,12.3
2017-09-14T01:53:25.715Z,12.3
2017-09-14T01:54:24.881Z,12.3
2017-09-14T01:55:24.181Z,12.3
2017-09-14T01:56:23.096Z,12.3
2017-09-14T01:57:22.388Z,12.3
2017-09-14T01:58:21.805Z,12.3
2017-09-14T01:59:20.969Z,12.3
2017-09-14T02:00:20.258Z,12.3
2017-09-14T02:01:19.680Z,12.3
2017-09-14T02:02:18.602Z,12.3
2017-09-14T02:03:17.518Z,12.3
2017-09-14T02:04:17.183Z,12.3
2017-09-14T02:05:16.094Z,12.3
2017-09-14T02:06:15.298Z,12.3
2017-09-14T02:07:14.594Z,12.3
2017-09-14T02:08:14.014Z,12.3
2017-09-14T02:09:12.680Z,12.3
2017-09-14T02:10:12.350Z,12.3
2017-09-14T02:11:11.644Z,12.3
2017-09-14T02:12:10.807Z,12.3
2017-09-14T02:13:10.105Z,12.3
2017-09-14T02:16:07.291Z,12.3
2017-09-14T02:17:06.708Z,12.2
2017-09-14T02:18:06.003Z,12.2
2017-09-14T02:19:05.426Z,12.2
2017-09-14T02:20:04.219Z,12.2
2017-09-14T02:21:03.640Z,12.3
2017-09-14T02:22:03.067Z,12.2
2017-09-14T02:23:01.979Z,12.2
2017-09-14T02:24:01.151Z,12.2
2017-09-14T02:25:00.706Z,12.3
2017-09-14T02:25:59.494Z,12.3
2017-09-14T02:26:59.042Z,12.3
2017-09-14T02:27:57.834Z,12.3
2017-09-14T02:28:57.379Z,12.3
2017-09-14T02:29:56.553Z,12.3
2017-09-14T02:30:55.971Z,12.3
2017-09-14T02:31:54.772Z,12.3
2017-09-14T02:32:54.184Z,12.3
2017-09-14T02:33:53.748Z,12.3
2017-09-14T02:34:52.797Z,12.4
2017-09-14T02:35:51.714Z,12.4
2017-09-14T02:36:51.038Z,12.4
2017-09-14T02:37:50.340Z,12.4
2017-09-14T02:38:49.259Z,12.4
2017-09-14T02:39:48.427Z,12.4
2017-09-14T02:40:47.843Z,12.3
2017-09-14T02:41:47.273Z,12.3
2017-09-14T02:42:46.315Z,12.3
2017-09-14T02:43:45.607Z,12.3
2017-09-14T02:44:45.025Z,12.3
2017-09-14T02:45:44.061Z,12.3
2017-09-14T02:46:43.360Z,12.3
2017-09-14T02:47:42.165Z,12.3
2017-09-14T02:48:41.599Z,12.3
2017-09-14T02:49:40.897Z,12.3
2017-09-14T02:50:40.072Z,12.3
2017-09-14T02:51:39.494Z,12.3
2017-09-14T02:52:38.419Z,12.3
2017-09-14T02:53:37.590Z,12.3
2017-09-14T02:54:36.888Z,12.2
2017-09-14T02:55:36.192Z,12.3
2017-09-14T02:56:35.111Z,12.3
2017-09-14T02:57:34.531Z,12.3
2017-09-14T02:58:33.574Z,12.2
2017-09-14T02:59:33.004Z,12.2
2017-09-14T03:00:32.181Z,12.2
2017-09-14T03:01:31.231Z,12.3
2017-09-14T03:02:30.657Z,12.3
2017-09-14T03:03:29.829Z,12.3
2017-09-14T03:04:29.131Z,12.2
2017-09-14T03:05:28.433Z,12.2
2017-09-14T03:06:27.354Z,12.3
2017-09-14T03:07:26.791Z,12.3
2017-09-14T03:08:25.456Z,12.3
2017-09-14T03:09:25.002Z,12.3
2017-09-14T03:10:24.170Z,12.3
2017-09-14T03:11:23.473Z,12.3
2017-09-14T03:12:22.264Z,12.3
2017-09-14T03:13:21.942Z,12.3
2017-09-14T03:14:20.989Z,12.3
2017-09-14T03:15:20.159Z,12.3
2017-09-14T03:16:19.707Z,12.3
2017-09-14T03:18:17.772Z,12.3
2017-09-14T03:19:16.949Z,12.3
2017-09-14T03:20:16.133Z,12.3
2017-09-14T03:21:15.431Z,12.4
2017-09-14T03:22:14.481Z,12.4
2017-09-14T03:23:13.905Z,12.4
2017-09-14T03:24:13.323Z,12.4
2017-09-14T03:25:12.369Z,12.4
2017-09-14T03:26:11.674Z,12.4
2017-09-14T03:27:10.595Z,12.4
2017-09-14T03:28:10.152Z,12.4
2017-09-14T03:30:08.335Z,12.4
2017-09-14T03:31:07.757Z,12.4
2017-09-14T03:32:06.828Z,12.3
2017-09-14T03:33:06.121Z,12.3
2017-09-14T03:34:05.418Z,12.3
2017-09-14T03:35:04.463Z,12.3
2017-09-14T03:36:03.635Z,12.4
2017-09-14T03:37:02.931Z,12.3
2017-09-14T03:38:01.852Z,12.3
2017-09-14T03:39:01.526Z,12.3
2017-09-14T03:40:00.580Z,12.3
2017-09-14T03:40:59.879Z,12.3
2017-09-14T03:41:58.799Z,12.3
2017-09-14T03:42:57.973Z,12.3
2017-09-14T03:43:57.276Z,12.3
2017-09-14T03:44:56.952Z,12.3
2017-09-14T03:45:55.885Z,12.3
2017-09-14T03:46:54.930Z,12.3
2017-09-14T03:47:54.099Z,12.3
2017-09-14T03:48:24.581Z,12.3
2017-09-14T03:48:54.691Z,12.3
2017-09-14T03:49:52.604Z,12.3
2017-09-14T03:50:52.157Z,12.3
2017-09-14T03:51:50.826Z,12.4
2017-09-14T03:52:50.004Z,12.3
2017-09-14T03:53:49.674Z,12.3
2017-09-14T03:54:49.016Z,12.3
2017-09-14T03:55:47.806Z,12.3
2017-09-14T03:56:47.099Z,12.3
2017-09-14T03:57:46.148Z,12.3
2017-09-14T03:58:45.463Z,12.3
2017-09-14T03:59:44.510Z,12.3
2017-09-14T04:00:43.806Z,12.3
2017-09-14T04:01:43.106Z,12.3
2017-09-14T04:02:42.399Z,12.3
2017-09-14T04:03:41.570Z,12.3
2017-09-14T04:04:40.989Z,12.3
2017-09-14T04:05:40.163Z,12.3
2017-09-14T04:06:39.084Z,12.3
2017-09-14T04:07:38.507Z,12.3
2017-09-14T04:08:37.805Z,12.3
2017-09-14T04:09:36.858Z,12.3
2017-09-14T04:10:35.782Z,12.4
2017-09-14T04:11:35.083Z,12.4
2017-09-14T04:12:34.258Z,12.4
2017-09-14T04:13:33.684Z,12.4
2017-09-14T04:14:33.110Z,12.4
2017-09-14T04:15:31.905Z,12.5
2017-09-14T04:16:31.081Z,12.5
2017-09-14T04:17:30.142Z,12.5
2017-09-14T04:18:29.948Z,12.5
2017-09-14T04:19:28.995Z,12.5
2017-09-14T04:20:28.041Z,12.5
2017-09-14T04:21:27.719Z,12.5
2017-09-14T04:22:26.652Z,12.5
2017-09-14T04:23:25.824Z,12.6
2017-09-14T04:24:24.625Z,12.5
2017-09-14T04:25:24.205Z,12.6
2017-09-14T04:26:23.624Z,12.5
2017-09-14T04:27:22.557Z,12.6
2017-09-14T04:28:21.994Z,12.6
2017-09-14T04:28:52.105Z,12.6
2017-09-14T04:29:22.723Z,12.6
2017-09-14T04:30:20.512Z,12.6
2017-09-14T04:31:19.429Z,12.6
2017-09-14T04:32:18.863Z,12.6
2017-09-14T04:33:18.042Z,12.6
2017-09-14T04:34:16.871Z,12.6
2017-09-14T04:35:16.420Z,12.6
2017-09-14T04:36:15.597Z,12.6
2017-09-14T04:37:14.399Z,12.6
2017-09-14T04:38:13.826Z,12.5
2017-09-14T04:39:13.126Z,12.5
2017-09-14T04:40:12.544Z,12.5
2017-09-14T04:41:11.590Z,12.5
2017-09-14T04:42:11.014Z,12.5
2017-09-14T04:43:09.815Z,12.5
2017-09-14T04:44:09.252Z,12.5
2017-09-14T04:45:08.676Z,12.5
2017-09-14T04:46:07.598Z,12.5
2017-09-14T04:47:07.025Z,12.4
2017-09-14T04:48:05.972Z,12.4
2017-09-14T04:48:35.955Z,12.4
2017-09-14T04:49:06.688Z,12.4
2017-09-14T04:49:37.050Z,12.4
2017-09-14T04:50:07.418Z,12.4
2017-09-14T04:51:03.319Z,12.4
2017-09-14T04:52:02.745Z,12.4
2017-09-14T04:53:01.918Z,12.4
2017-09-14T04:54:01.475Z,12.4
2017-09-14T04:55:00.772Z,12.4
2017-09-14T04:55:59.816Z,12.4
2017-09-14T04:56:58.867Z,12.4
2017-09-14T04:57:58.291Z,12.4
2017-09-14T04:58:57.719Z,12.4
2017-09-14T04:59:56.760Z,12.4
2017-09-14T05:00:55.686Z,12.4
2017-09-14T05:01:54.989Z,12.4
2017-09-14T05:02:54.039Z,12.4
2017-09-14T05:03:53.092Z,12.4
2017-09-14T05:04:52.764Z,12.4
2017-09-14T05:05:51.934Z,12.4
2017-09-14T05:06:51.359Z,12.4
2017-09-14T05:07:50.029Z,12.4
2017-09-14T05:08:49.324Z,12.4
2017-09-14T05:09:48.868Z,12.5
2017-09-14T05:10:48.041Z,12.5
2017-09-14T05:11:47.096Z,12.6
2017-09-14T05:12:46.520Z,12.6
2017-09-14T05:13:45.571Z,12.6
2017-09-14T05:14:45.124Z,12.6
2017-09-14T05:15:44.167Z,12.6
2017-09-14T05:16:42.959Z,12.6
2017-09-14T05:17:42.380Z,12.5
2017-09-14T05:18:41.807Z,12.5
2017-09-14T05:19:40.847Z,12.5
2017-09-14T05:20:40.144Z,12.5
2017-09-14T05:21:38.947Z,12.4
2017-09-14T05:22:38.500Z,12.4
2017-09-14T05:23:37.548Z,12.4
2017-09-14T05:24:07.912Z,12.4
2017-09-14T05:24:38.401Z,12.4
2017-09-14T05:25:08.768Z,12.4
2017-09-14T05:25:39.245Z,12.4
2017-09-14T05:26:35.533Z,12.4
2017-09-14T05:27:34.201Z,12.4
2017-09-14T05:28:33.760Z,12.4
2017-09-14T05:29:33.190Z,12.5
2017-09-14T05:30:31.992Z,12.5
2017-09-14T05:31:31.417Z,12.5
2017-09-14T05:32:30.473Z,12.5
2017-09-14T05:33:29.900Z,12.5
2017-09-14T05:34:29.213Z,12.5
2017-09-14T05:35:28.130Z,12.5
2017-09-14T05:36:27.309Z,12.6
2017-09-14T05:37:26.904Z,12.6
2017-09-14T05:38:25.957Z,12.6
2017-09-14T05:39:24.757Z,12.5
2017-09-14T05:40:24.182Z,12.5
2017-09-14T05:41:23.740Z,12.5
2017-09-14T05:42:22.660Z,12.5
2017-09-14T05:43:22.088Z,12.5
2017-09-14T05:44:21.010Z,12.5
2017-09-14T05:45:20.440Z,12.5
2017-09-14T05:46:19.614Z,12.5
2017-09-14T05:47:18.787Z,12.4
2017-09-14T05:48:17.722Z,12.4
2017-09-14T05:49:16.770Z,12.4
2017-09-14T05:50:16.318Z,12.4
2017-09-14T05:51:15.619Z,12.4
2017-09-14T05:52:14.918Z,12.4
2017-09-14T05:53:13.840Z,12.4
2017-09-14T05:54:13.019Z,12.5
2017-09-14T05:55:12.321Z,12.5
2017-09-14T05:56:11.615Z,12.5
2017-09-14T05:57:11.042Z,12.5
2017-09-14T05:58:09.709Z,12.5
2017-09-14T05:59:09.509Z,12.5
2017-09-14T06:00:08.679Z,12.5
2017-09-14T06:01:07.853Z,12.5
2017-09-14T06:02:06.781Z,12.5
2017-09-14T06:03:06.085Z,12.5
2017-09-14T06:04:05.506Z,12.5
2017-09-14T06:05:04.428Z,12.5
2017-09-14T06:05:34.916Z,12.5
2017-09-14T06:06:05.526Z,12.5
2017-09-14T06:06:35.758Z,12.5
2017-09-14T06:08:02.361Z,12.5
2017-09-14T06:09:01.404Z,12.5
2017-09-14T06:10:00.449Z,12.5
2017-09-14T06:10:59.875Z,12.5
2017-09-14T06:11:58.802Z,12.5
2017-09-14T06:12:57.976Z,12.5
2017-09-14T06:13:57.280Z,12.5
2017-09-14T06:14:56.455Z,12.5
2017-09-14T06:15:55.754Z,12.5
2017-09-14T06:16:54.807Z,12.5
2017-09-14T06:17:54.136Z,12.5
2017-09-14T06:18:53.304Z,12.5
2017-09-14T06:19:52.851Z,12.5
2017-09-14T06:20:51.770Z,12.5
2017-09-14T06:21:50.943Z,12.5
2017-09-14T06:22:50.367Z,12.5
2017-09-14T06:23:49.665Z,12.5
2017-09-14T06:24:48.473Z,12.6
2017-09-14T06:25:47.898Z,12.6
2017-09-14T06:26:47.330Z,12.6
2017-09-14T06:27:46.128Z,12.6
2017-09-14T06:28:45.679Z,12.6
2017-09-14T06:29:44.739Z,12.6
2017-09-14T06:30:44.018Z,12.6
2017-09-14T06:31:43.442Z,12.6
2017-09-14T06:32:42.492Z,12.6
2017-09-14T06:33:41.910Z,12.6
2017-09-14T06:34:40.840Z,12.6
2017-09-14T06:35:40.009Z,12.6
2017-09-14T06:36:39.468Z,12.6
2017-09-14T06:37:38.391Z,12.6
2017-09-14T06:38:37.442Z,12.6
2017-09-14T06:39:37.114Z,12.6
2017-09-14T06:40:35.928Z,12.6
2017-09-14T06:41:35.363Z,12.6
2017-09-14T06:42:34.544Z,12.6
2017-09-14T06:43:34.102Z,12.6
2017-09-14T06:44:32.899Z,12.6
2017-09-14T06:45:32.447Z,12.6
2017-09-14T06:46:31.241Z,12.6
2017-09-14T06:47:30.415Z,12.7
2017-09-14T06:48:29.970Z,12.7
2017-09-14T06:49:28.787Z,12.7
2017-09-14T06:50:28.208Z,12.7
2017-09-14T06:51:27.508Z,12.7
2017-09-14T06:53:25.813Z,12.7
2017-09-14T06:54:25.110Z,12.7
2017-09-14T06:55:24.535Z,12.7
2017-09-14T06:56:23.580Z,12.7
2017-09-14T06:57:22.873Z,12.8
2017-09-14T06:58:22.047Z,12.8
2017-09-14T06:59:21.224Z,12.9
2017-09-14T07:00:20.524Z,12.9
2017-09-14T07:01:19.704Z,12.9
2017-09-14T07:02:18.876Z,12.9
2017-09-14T07:04:17.187Z,12.9
2017-09-14T07:05:16.736Z,12.9
2017-09-14T07:06:15.658Z,12.9
2017-09-14T07:07:15.208Z,12.9
2017-09-14T07:09:13.394Z,12.9
2017-09-14T07:11:11.583Z,12.9
2017-09-14T07:13:10.146Z,12.9
2017-09-14T07:15:08.580Z,12.9
2017-09-14T07:16:07.883Z,12.9
2017-09-14T07:17:07.309Z,13
2017-09-14T07:18:06.237Z,13
2017-09-14T07:19:05.539Z,13
2017-09-14T07:20:04.592Z,13
2017-09-14T07:21:03.895Z,13
2017-09-14T07:22:03.323Z,13
2017-09-14T07:23:02.250Z,13
2017-09-14T07:24:01.811Z,13.1
2017-09-14T07:25:59.864Z,13.1
2017-09-14T07:26:59.066Z,13.1
2017-09-14T07:27:58.733Z,13.1
2017-09-14T07:28:57.814Z,13.1
2017-09-14T07:29:56.988Z,13.2
2017-09-14T07:30:56.175Z,13.2
2017-09-14T07:31:55.598Z,13.2
2017-09-14T07:32:54.646Z,13.2
2017-09-14T07:33:53.691Z,13.2
2017-09-14T07:34:52.990Z,13.3
2017-09-14T07:35:52.281Z,13.3
2017-09-14T07:36:51.705Z,13.3
2017-09-14T07:37:50.753Z,13.4
2017-09-14T07:38:49.555Z,13.4
2017-09-14T07:39:49.116Z,13.5
2017-09-14T07:40:48.191Z,13.5
2017-09-14T07:41:47.517Z,13.5
2017-09-14T07:42:46.830Z,13.6
2017-09-14T07:43:46.128Z,13.6
2017-09-14T07:44:44.921Z,13.7
2017-09-14T07:45:44.344Z,13.7
2017-09-14T07:46:43.389Z,13.7
2017-09-14T07:47:42.811Z,13.7
2017-09-14T07:48:42.113Z,13.8
2017-09-14T07:49:41.418Z,13.8
2017-09-14T07:50:40.854Z,13.8
2017-09-14T07:51:39.645Z,13.8
2017-09-14T07:52:38.688Z,13.8
2017-09-14T07:53:38.247Z,13.8
2017-09-14T07:54:37.038Z,13.8
2017-09-14T07:55:36.465Z,13.8
2017-09-14T07:56:35.635Z,13.8
2017-09-14T07:57:35.222Z,13.8
2017-09-14T07:58:05.464Z,13.8
2017-09-14T07:58:35.441Z,13.8
2017-09-14T07:59:33.738Z,13.8
2017-09-14T08:00:32.910Z,13.8
2017-09-14T08:01:31.706Z,13.7
2017-09-14T08:03:30.641Z,13.7
2017-09-14T08:04:29.822Z,13.7
2017-09-14T08:05:28.743Z,13.7
2017-09-14T08:06:28.170Z,13.7
2017-09-14T08:07:27.086Z,13.7
2017-09-14T08:08:26.642Z,13.7
2017-09-14T08:09:26.084Z,13.7
2017-09-14T08:10:24.880Z,13.7
2017-09-14T08:11:24.308Z,13.8
2017-09-14T08:12:23.248Z,13.8
2017-09-14T08:13:22.795Z,13.8
2017-09-14T08:14:21.971Z,13.8
2017-09-14T08:15:21.277Z,13.8
2017-09-14T08:16:20.197Z,13.8
2017-09-14T08:17:19.367Z,13.8
2017-09-14T08:18:18.673Z,13.8
2017-09-14T08:19:18.095Z,13.8
2017-09-14T08:20:17.143Z,13.8
2017-09-14T08:21:16.443Z,13.8
2017-09-14T08:22:15.757Z,13.8
2017-09-14T08:23:15.181Z,13.8
2017-09-14T08:24:14.227Z,13.9
2017-09-14T08:25:13.404Z,13.9
2017-09-14T08:26:12.827Z,13.9
2017-09-14T08:27:11.636Z,13.9
2017-09-14T08:28:11.190Z,14
2017-09-14T08:29:10.482Z,13.9
2017-09-14T08:30:09.531Z,13.9
2017-09-14T08:31:08.730Z,13.9
2017-09-14T08:32:08.035Z,14
2017-09-14T08:33:07.587Z,14
2017-09-14T08:34:06.626Z,14
2017-09-14T08:35:05.925Z,14
2017-09-14T08:36:04.855Z,14
2017-09-14T08:37:04.028Z,14
2017-09-14T08:39:02.683Z,14
2017-09-14T08:40:02.109Z,14
2017-09-14T08:41:01.282Z,14
2017-09-14T08:42:00.083Z,14
2017-09-14T08:42:59.511Z,14
2017-09-14T08:43:59.066Z,14
2017-09-14T08:44:58.242Z,14
2017-09-14T08:45:57.284Z,14
2017-09-14T08:46:56.705Z,14
2017-09-14T08:48:55.007Z,14
2017-09-14T08:50:53.442Z,13.9
2017-09-14T08:52:51.747Z,13.9
2017-09-14T08:53:51.177Z,13.9
2017-09-14T08:54:50.352Z,13.9
2017-09-14T08:55:49.531Z,13.9
2017-09-14T08:56:48.950Z,13.9
2017-09-14T08:57:47.999Z,13.9
2017-09-14T08:58:47.166Z,13.9
2017-09-14T08:59:46.715Z,13.8
2017-09-14T09:00:45.765Z,13.8
2017-09-14T09:01:45.067Z,13.8
2017-09-14T09:03:43.384Z,13.8
2017-09-14T09:04:42.935Z,13.8
2017-09-14T09:05:42.111Z,13.8
2017-09-14T09:06:41.289Z,13.8
2017-09-14T09:08:39.979Z,13.8
2017-09-14T09:09:38.901Z,13.8
2017-09-14T09:10:38.073Z,13.9
2017-09-14T09:11:37.374Z,13.9
2017-09-14T09:12:36.309Z,13.9
2017-09-14T09:14:34.751Z,14
2017-09-14T09:15:34.043Z,13.9
2017-09-14T09:16:33.468Z,14
2017-09-14T09:17:32.889Z,14
2017-09-14T09:18:32.312Z,13.9
2017-09-14T09:19:31.115Z,13.9
2017-09-14T09:20:30.546Z,13.9
2017-09-14T09:21:29.595Z,14
2017-09-14T09:22:28.900Z,14
2017-09-14T09:23:28.074Z,14
2017-09-14T09:23:58.809Z,14
2017-09-14T09:25:26.541Z,14
2017-09-14T09:26:25.997Z,14
2017-09-14T09:27:25.295Z,14
2017-09-14T09:28:24.345Z,14
2017-09-14T09:29:23.766Z,14
2017-09-14T09:30:22.555Z,14.1
2017-09-14T09:31:22.105Z,14.1
2017-09-14T09:32:21.023Z,14
2017-09-14T09:33:20.711Z,14
2017-09-14T09:33:51.200Z,14
2017-09-14T09:34:21.433Z,14.1
2017-09-14T09:34:51.665Z,14.1
2017-09-14T09:35:21.773Z,14.1
2017-09-14T09:35:52.260Z,14.1
2017-09-14T09:37:17.226Z,14
2017-09-14T09:38:16.401Z,14
2017-09-14T09:39:15.826Z,14
2017-09-14T09:40:14.992Z,14
2017-09-14T09:41:14.412Z,14
2017-09-14T09:42:13.839Z,14.1
2017-09-14T09:43:12.770Z,14.1
2017-09-14T09:44:12.339Z,14.1
2017-09-14T09:45:11.550Z,14.1
2017-09-14T09:46:10.470Z,14.1
2017-09-14T09:47:10.035Z,14.1
2017-09-14T09:48:09.086Z,14.1
2017-09-14T09:49:08.259Z,14.1
2017-09-14T09:50:07.305Z,14.1
2017-09-14T09:51:07.002Z,14
2017-09-14T09:52:06.312Z,14
2017-09-14T09:53:04.976Z,14
2017-09-14T09:54:04.526Z,14
2017-09-14T09:55:03.701Z,14
2017-09-14T09:56:03.255Z,14
2017-09-14T09:57:02.179Z,13.9
2017-09-14T09:58:01.734Z,13.9
2017-09-14T09:59:00.906Z,13.9
2017-09-14T09:59:59.698Z,13.9
2017-09-14T10:00:58.997Z,13.8
2017-09-14T10:01:58.297Z,13.8
2017-09-14T10:02:57.591Z,13.7
2017-09-14T10:03:57.031Z,13.7
2017-09-14T10:04:55.950Z,13.7
2017-09-14T10:05:26.560Z,13.7
2017-09-14T10:05:56.666Z,13.6
2017-09-14T10:06:27.279Z,13.6
2017-09-14T10:06:57.380Z,13.6
2017-09-14T10:07:27.894Z,13.6
2017-09-14T10:07:58.508Z,13.5
2017-09-14T10:08:53.282Z,13.5
2017-09-14T10:09:51.958Z,13.5
2017-09-14T10:10:51.511Z,13.4
2017-09-14T10:11:50.973Z,13.4
2017-09-14T10:12:50.152Z,13.4
2017-09-14T10:13:48.956Z,13.4
2017-09-14T10:14:48.133Z,13.4
2017-09-14T10:15:47.566Z,13.3
2017-09-14T10:16:18.302Z,13.3
2017-09-14T10:16:48.541Z,13.3
2017-09-14T10:17:18.782Z,13.3
2017-09-14T10:17:49.146Z,13.3
2017-09-14T10:18:19.767Z,13.3
2017-09-14T10:19:44.811Z,13.3
2017-09-14T10:20:43.739Z,13.3
2017-09-14T10:21:43.044Z,13.3
2017-09-14T10:22:42.350Z,13.3
2017-09-14T10:23:41.780Z,13.3
2017-09-14T10:25:40.089Z,13.2
2017-09-14T10:26:39.391Z,13.2
2017-09-14T10:27:38.578Z,13.2
2017-09-14T10:28:37.621Z,13.2
2017-09-14T10:29:36.800Z,13.2
2017-09-14T10:30:36.099Z,13.2
2017-09-14T10:31:35.407Z,13.2
2017-09-14T10:32:34.583Z,13.1
2017-09-14T10:33:34.005Z,13.1
2017-09-14T10:34:33.305Z,13.2
2017-09-14T10:35:32.104Z,13.2
2017-09-14T10:36:31.732Z,13.1
2017-09-14T10:37:30.785Z,13.1
2017-09-14T10:38:29.835Z,13.1
2017-09-14T10:39:29.382Z,13.1
2017-09-14T10:40:28.433Z,13.1
2017-09-14T10:41:27.620Z,13.1
2017-09-14T10:42:27.048Z,13.1
2017-09-14T10:43:26.221Z,13.1
2017-09-14T10:44:25.520Z,13
2017-09-14T10:45:24.574Z,13
2017-09-14T10:46:23.874Z,13
2017-09-14T10:47:23.053Z,13
2017-09-14T10:48:22.478Z,12.9
2017-09-14T10:49:21.569Z,12.9
2017-09-14T10:50:20.627Z,12.9
2017-09-14T10:51:19.801Z,12.8
2017-09-14T10:52:19.232Z,12.8
2017-09-14T10:53:18.546Z,12.8
2017-09-14T10:54:17.727Z,12.8
2017-09-14T10:55:17.027Z,12.7
2017-09-14T10:56:16.198Z,12.7
2017-09-14T10:57:15.372Z,12.7
2017-09-14T10:57:45.859Z,12.7
2017-09-14T10:59:13.971Z,12.6
2017-09-14T11:00:12.769Z,12.6
2017-09-14T11:01:12.570Z,12.6
2017-09-14T11:02:11.370Z,12.6
2017-09-14T11:03:10.671Z,12.6
2017-09-14T11:04:09.973Z,12.6
2017-09-14T11:05:09.157Z,12.5
2017-09-14T11:06:08.744Z,12.5
2017-09-14T11:07:07.793Z,12.5
2017-09-14T11:08:06.585Z,12.5
2017-09-14T11:08:36.951Z,12.5
2017-09-14T11:09:07.062Z,12.5
2017-09-14T11:10:05.227Z,12.4
2017-09-14T11:11:04.771Z,12.4
2017-09-14T11:12:03.826Z,12.4
2017-09-14T11:14:02.516Z,12.3
2017-09-14T11:15:01.441Z,12.3
2017-09-14T11:16:00.743Z,12.3
2017-09-14T11:17:00.040Z,12.3
2017-09-14T11:17:58.867Z,12.3
2017-09-14T11:18:58.287Z,12.2
2017-09-14T11:19:57.584Z,12.2
2017-09-14T11:20:56.758Z,12.2
2017-09-14T11:21:55.934Z,12.2
2017-09-14T11:22:54.976Z,12.2
2017-09-14T11:23:54.403Z,12.2
2017-09-14T11:24:53.704Z,12.2
2017-09-14T11:25:52.711Z,12.2
2017-09-14T11:26:51.878Z,12.1
2017-09-14T11:27:51.174Z,12.1
2017-09-14T11:28:50.222Z,12.1
2017-09-14T11:29:49.647Z,12.1
2017-09-14T11:30:48.953Z,12.1
2017-09-14T11:31:48.376Z,12.1
2017-09-14T11:32:47.421Z,12.1
2017-09-14T11:33:46.347Z,12.1
2017-09-14T11:34:45.782Z,12.1
2017-09-14T11:35:44.826Z,12.1
2017-09-14T11:36:43.913Z,12.1
2017-09-14T11:37:43.211Z,12.1
2017-09-14T11:38:42.388Z,12.1
2017-09-14T11:39:41.436Z,12.1
2017-09-14T11:40:40.875Z,12.1
2017-09-14T11:41:40.178Z,12.1
2017-09-14T11:42:39.482Z,12
2017-09-14T11:43:09.720Z,12
2017-09-14T11:43:39.947Z,12
2017-09-14T11:44:37.742Z,12.1
2017-09-14T11:45:36.915Z,12.1
2017-09-14T11:46:36.215Z,12.1
2017-09-14T11:47:35.389Z,12.1
2017-09-14T11:48:34.564Z,12.1
2017-09-14T11:49:33.858Z,12.1
2017-09-14T11:50:33.161Z,12.1
2017-09-14T11:51:32.209Z,12.1
2017-09-14T11:52:31.513Z,12.1
2017-09-14T11:53:30.681Z,12.1
2017-09-14T11:54:01.059Z,12.1
2017-09-14T11:54:31.314Z,12.1
2017-09-14T11:55:01.798Z,12.1
2017-09-14T11:55:32.036Z,12.2
2017-09-14T11:56:02.651Z,12.2
2017-09-14T11:56:33.142Z,12.2
2017-09-14T11:57:03.510Z,12.2
2017-09-14T11:58:26.585Z,12.2
2017-09-14T11:59:25.756Z,12.2
2017-09-14T12:00:25.191Z,12.2
2017-09-14T12:01:24.481Z,12.2
2017-09-14T12:02:23.410Z,12.2
2017-09-14T12:03:22.713Z,12.2
2017-09-14T12:04:22.138Z,12.2
2017-09-14T12:05:21.439Z,12.3
2017-09-14T12:06:20.358Z,12.3
2017-09-14T12:07:19.788Z,12.3
2017-09-14T12:08:18.582Z,12.3
2017-09-14T12:09:17.771Z,12.4
2017-09-14T12:11:16.333Z,12.4
2017-09-14T12:12:15.629Z,12.4
2017-09-14T12:13:15.057Z,12.4
2017-09-14T12:14:14.110Z,12.4
2017-09-14T12:15:13.288Z,12.4
2017-09-14T12:17:11.850Z,12.4
2017-09-14T12:18:11.020Z,12.4
2017-09-14T12:19:09.948Z,12.4
2017-09-14T12:20:09.374Z,12.4
2017-09-14T12:21:08.546Z,12.4
2017-09-14T12:22:07.475Z,12.4
2017-09-14T12:23:06.774Z,12.5
2017-09-14T12:25:05.080Z,12.5
2017-09-14T12:26:04.526Z,12.5
2017-09-14T12:27:03.960Z,12.5
2017-09-14T12:28:02.882Z,12.5
2017-09-14T12:29:02.185Z,12.6
2017-09-14T12:30:01.360Z,12.6
2017-09-14T12:31:00.791Z,12.6
2017-09-14T12:32:00.088Z,12.6
2017-09-14T12:32:59.066Z,12.7
2017-09-14T12:33:58.488Z,12.6
2017-09-14T12:34:57.785Z,12.7
2017-09-14T12:35:28.022Z,12.7
2017-09-14T12:35:58.395Z,12.7
2017-09-14T12:36:28.768Z,12.7
2017-09-14T12:36:59.257Z,12.7
2017-09-14T12:37:29.741Z,12.7
2017-09-14T12:38:54.329Z,12.7
2017-09-14T12:39:53.755Z,12.7
2017-09-14T12:40:52.425Z,12.7
2017-09-14T12:41:51.847Z,12.7
2017-09-14T12:42:51.148Z,12.7
2017-09-14T12:43:50.564Z,12.7
2017-09-14T12:44:49.392Z,12.7
2017-09-14T12:45:48.815Z,12.8
2017-09-14T12:46:18.926Z,12.8
2017-09-14T12:46:49.531Z,12.8
2017-09-14T12:47:20.027Z,12.8
2017-09-14T12:48:46.251Z,12.9
2017-09-14T12:49:45.683Z,12.9
2017-09-14T12:51:44.257Z,13
2017-09-14T12:52:43.059Z,13.1
2017-09-14T12:53:42.740Z,13.1
2017-09-14T12:54:42.038Z,13.1
2017-09-14T12:55:40.961Z,13.1
2017-09-14T12:56:40.382Z,13.2
2017-09-14T12:58:38.190Z,13.3
2017-09-14T12:59:37.879Z,13.3
2017-09-14T13:00:36.933Z,13.3
2017-09-14T13:02:35.238Z,13.3
2017-09-14T13:03:34.658Z,13.3
2017-09-14T13:04:33.708Z,13.3
2017-09-14T13:05:33.139Z,13.3
2017-09-14T13:06:32.438Z,13.3
2017-09-14T13:07:31.360Z,13.3
2017-09-14T13:08:30.678Z,13.3
2017-09-14T13:09:29.987Z,13.3
2017-09-14T13:10:29.031Z,13.3
2017-09-14T13:11:28.580Z,13.3
2017-09-14T13:13:27.018Z,13.4
2017-09-14T13:14:26.194Z,13.4
2017-09-14T13:15:25.116Z,13.4
2017-09-14T13:16:24.666Z,13.4
2017-09-14T13:17:23.589Z,13.5
2017-09-14T13:18:22.895Z,13.5
2017-09-14T13:19:22.323Z,13.5
2017-09-14T13:20:21.631Z,13.5
2017-09-14T13:21:20.431Z,13.6
2017-09-14T13:22:19.853Z,13.7
2017-09-14T13:24:18.052Z,13.7